Rock Springs, Wisconsin
Current Conditions -  °F | °C
As of 5:55 PM on Friday 31 Oct 2014 (Local Time) from KC35 Reporting Station
Clear Clear  
Wind Chill: 26°   Ceiling: Unl
Heat Index: 35°   Visibility: 10mi
Dew Point: 17°   Wind: 13mph
Humidity: 49%   Direction: 360°N
Pressure: 30.41"   Gusts: 18mph
Location:  43.49°N, 89.92°W
Report Text: KC35 312255Z AUTO 36011G16KT 10SM CLR 02/M08 A3041 RMK AO2 T00151081
Loading
Personal Weather Stations






























Interactive Weather Map New forecast layout! Learn more

10-Day Weather Forecast

Advertisements
Track Severe Weather on mobile